sensor_id;sensor_type;location;lat;lon;timestamp;temperature;humidity
27188;DHT22;14708;50.872;5.306;2023-07-13T00:01:44;26.60;42.00
27188;DHT22;14708;50.872;5.306;2023-07-13T00:04:11;26.60;42.00
27188;DHT22;14708;50.872;5.306;2023-07-13T00:06:37;26.60;42.00
27188;DHT22;14708;50.872;5.306;2023-07-13T00:09:03;26.60;42.20
27188;DHT22;14708;50.872;5.306;2023-07-13T00:11:28;26.60;42.20
27188;DHT22;14708;50.872;5.306;2023-07-13T00:13:55;26.70;42.40
27188;DHT22;14708;50.872;5.306;2023-07-13T00:16:20;26.60;42.30
27188;DHT22;14708;50.872;5.306;2023-07-13T00:18:46;26.70;42.40
27188;DHT22;14708;50.872;5.306;2023-07-13T00:21:12;26.60;42.10
27188;DHT22;14708;50.872;5.306;2023-07-13T00:23:40;26.60;42.40
27188;DHT22;14708;50.872;5.306;2023-07-13T00:26:09;26.70;42.50
27188;DHT22;14708;50.872;5.306;2023-07-13T00:28:35;26.60;42.40
27188;DHT22;14708;50.872;5.306;2023-07-13T00:31:01;26.70;42.60
27188;DHT22;14708;50.872;5.306;2023-07-13T00:33:28;26.70;42.50
27188;DHT22;14708;50.872;5.306;2023-07-13T00:35:55;26.60;42.50
27188;DHT22;14708;50.872;5.306;2023-07-13T00:38:21;26.70;42.80
27188;DHT22;14708;50.872;5.306;2023-07-13T00:40:47;26.70;42.70
27188;DHT22;14708;50.872;5.306;2023-07-13T00:43:16;26.70;42.70
27188;DHT22;14708;50.872;5.306;2023-07-13T00:48:08;26.60;42.70
27188;DHT22;14708;50.872;5.306;2023-07-13T00:50:34;26.60;42.90
27188;DHT22;14708;50.872;5.306;2023-07-13T00:53:00;26.60;42.70
27188;DHT22;14708;50.872;5.306;2023-07-13T00:55:26;26.60;42.80
27188;DHT22;14708;50.872;5.306;2023-07-13T00:57:52;26.70;42.90
27188;DHT22;14708;50.872;5.306;2023-07-13T01:00:19;26.60;42.90
27188;DHT22;14708;50.872;5.306;2023-07-13T01:02:46;26.60;42.60
27188;DHT22;14708;50.872;5.306;2023-07-13T01:05:16;26.60;42.80
27188;DHT22;14708;50.872;5.306;2023-07-13T01:07:43;26.60;42.90
27188;DHT22;14708;50.872;5.306;2023-07-13T01:10:10;26.60;42.80
27188;DHT22;14708;50.872;5.306;2023-07-13T01:12:36;26.60;42.80
27188;DHT22;14708;50.872;5.306;2023-07-13T01:15:02;26.60;42.70
27188;DHT22;14708;50.872;5.306;2023-07-13T01:17:31;26.60;42.90
27188;DHT22;14708;50.872;5.306;2023-07-13T01:19:59;26.60;42.90
27188;DHT22;14708;50.872;5.306;2023-07-13T01:22:25;26.60;42.80
27188;DHT22;14708;50.872;5.306;2023-07-13T01:24:53;26.60;43.10
27188;DHT22;14708;50.872;5.306;2023-07-13T01:27:24;26.60;43.00
27188;DHT22;14708;50.872;5.306;2023-07-13T01:29:51;26.60;43.10
27188;DHT22;14708;50.872;5.306;2023-07-13T01:32:20;26.60;43.10
27188;DHT22;14708;50.872;5.306;2023-07-13T01:34:53;26.60;43.20
27188;DHT22;14708;50.872;5.306;2023-07-13T01:37:23;26.60;43.30
27188;DHT22;14708;50.872;5.306;2023-07-13T01:39:49;26.60;43.30
27188;DHT22;14708;50.872;5.306;2023-07-13T01:42:14;26.60;43.30
27188;DHT22;14708;50.872;5.306;2023-07-13T01:44:40;26.60;43.30
27188;DHT22;14708;50.872;5.306;2023-07-13T01:47:06;26.50;43.40
27188;DHT22;14708;50.872;5.306;2023-07-13T01:49:31;26.60;43.40
27188;DHT22;14708;50.872;5.306;2023-07-13T01:51:57;26.50;43.30
27188;DHT22;14708;50.872;5.306;2023-07-13T01:54:23;26.60;43.50
27188;DHT22;14708;50.872;5.306;2023-07-13T01:56:48;26.50;43.40
27188;DHT22;14708;50.872;5.306;2023-07-13T01:59:14;26.60;43.50
27188;DHT22;14708;50.872;5.306;2023-07-13T02:01:40;26.50;43.40
27188;DHT22;14708;50.872;5.306;2023-07-13T02:04:05;26.50;43.60
27188;DHT22;14708;50.872;5.306;2023-07-13T02:06:31;26.50;43.50
27188;DHT22;14708;50.872;5.306;2023-07-13T02:08:58;26.50;43.60
27188;DHT22;14708;50.872;5.306;2023-07-13T02:11:23;26.50;43.60
27188;DHT22;14708;50.872;5.306;2023-07-13T02:13:50;26.50;43.70
27188;DHT22;14708;50.872;5.306;2023-07-13T02:16:16;26.50;43.80
27188;DHT22;14708;50.872;5.306;2023-07-13T02:18:41;26.50;43.70
27188;DHT22;14708;50.872;5.306;2023-07-13T02:21:07;26.50;43.80
27188;DHT22;14708;50.872;5.306;2023-07-13T02:23:33;26.50;43.80
27188;DHT22;14708;50.872;5.306;2023-07-13T02:26:01;26.50;43.80
27188;DHT22;14708;50.872;5.306;2023-07-13T02:28:28;26.50;43.90
27188;DHT22;14708;50.872;5.306;2023-07-13T02:30:54;26.50;43.90
27188;DHT22;14708;50.872;5.306;2023-07-13T02:33:19;26.50;44.00
27188;DHT22;14708;50.872;5.306;2023-07-13T02:35:45;26.50;43.80
27188;DHT22;14708;50.872;5.306;2023-07-13T02:38:10;26.50;43.90
27188;DHT22;14708;50.872;5.306;2023-07-13T02:40:36;26.50;43.90
27188;DHT22;14708;50.872;5.306;2023-07-13T02:43:03;26.40;43.90
27188;DHT22;14708;50.872;5.306;2023-07-13T02:45:28;26.40;43.90
27188;DHT22;14708;50.872;5.306;2023-07-13T02:47:54;26.40;44.00
27188;DHT22;14708;50.872;5.306;2023-07-13T02:50:20;26.40;44.00
27188;DHT22;14708;50.872;5.306;2023-07-13T02:52:46;26.40;43.90
27188;DHT22;14708;50.872;5.306;2023-07-13T02:55:11;26.40;44.00
27188;DHT22;14708;50.872;5.306;2023-07-13T02:57:37;26.40;44.00
27188;DHT22;14708;50.872;5.306;2023-07-13T03:00:04;26.40;43.90
27188;DHT22;14708;50.872;5.306;2023-07-13T03:02:33;26.40;44.00
27188;DHT22;14708;50.872;5.306;2023-07-13T03:05:00;26.30;43.90
27188;DHT22;14708;50.872;5.306;2023-07-13T03:07:25;26.30;44.00
27188;DHT22;14708;50.872;5.306;2023-07-13T03:09:57;26.30;43.90
27188;DHT22;14708;50.872;5.306;2023-07-13T03:12:23;26.30;44.10
27188;DHT22;14708;50.872;5.306;2023-07-13T03:14:48;26.30;44.20
27188;DHT22;14708;50.872;5.306;2023-07-13T03:17:14;26.30;44.80
27188;DHT22;14708;50.872;5.306;2023-07-13T03:19:40;26.40;44.20
27188;DHT22;14708;50.872;5.306;2023-07-13T03:22:06;26.30;44.30
27188;DHT22;14708;50.872;5.306;2023-07-13T03:24:33;26.30;44.30
27188;DHT22;14708;50.872;5.306;2023-07-13T03:27:01;26.30;44.50
27188;DHT22;14708;50.872;5.306;2023-07-13T03:29:27;26.30;44.40
27188;DHT22;14708;50.872;5.306;2023-07-13T03:31:53;26.30;44.60
27188;DHT22;14708;50.872;5.306;2023-07-13T03:34:19;26.30;44.50
27188;DHT22;14708;50.872;5.306;2023-07-13T03:36:45;26.30;44.50
27188;DHT22;14708;50.872;5.306;2023-07-13T03:39:10;26.30;44.40
27188;DHT22;14708;50.872;5.306;2023-07-13T03:41:36;26.30;44.60
27188;DHT22;14708;50.872;5.306;2023-07-13T03:44:02;26.20;44.60
27188;DHT22;14708;50.872;5.306;2023-07-13T03:46:28;26.30;44.40
27188;DHT22;14708;50.872;5.306;2023-07-13T03:48:54;26.30;44.40
27188;DHT22;14708;50.872;5.306;2023-07-13T03:51:20;26.20;44.20
27188;DHT22;14708;50.872;5.306;2023-07-13T03:53:47;26.30;44.30
27188;DHT22;14708;50.872;5.306;2023-07-13T03:56:14;26.20;44.40
27188;DHT22;14708;50.872;5.306;2023-07-13T03:58:41;26.20;44.40
27188;DHT22;14708;50.872;5.306;2023-07-13T04:01:08;26.20;44.50
27188;DHT22;14708;50.872;5.306;2023-07-13T04:03:35;26.20;44.60
27188;DHT22;14708;50.872;5.306;2023-07-13T04:06:03;26.20;44.60
27188;DHT22;14708;50.872;5.306;2023-07-13T04:08:31;26.20;44.70
27188;DHT22;14708;50.872;5.306;2023-07-13T04:10:57;26.20;44.70
27188;DHT22;14708;50.872;5.306;2023-07-13T04:13:23;26.20;44.60
27188;DHT22;14708;50.872;5.306;2023-07-13T04:15:49;26.20;44.70
27188;DHT22;14708;50.872;5.306;2023-07-13T04:18:15;26.20;44.80
27188;DHT22;14708;50.872;5.306;2023-07-13T04:20:41;26.20;44.80
27188;DHT22;14708;50.872;5.306;2023-07-13T04:23:06;26.20;44.70
27188;DHT22;14708;50.872;5.306;2023-07-13T04:25:32;26.20;44.80
27188;DHT22;14708;50.872;5.306;2023-07-13T04:27:58;26.20;44.90
27188;DHT22;14708;50.872;5.306;2023-07-13T04:30:24;26.20;44.80
27188;DHT22;14708;50.872;5.306;2023-07-13T04:32:51;26.20;45.00
27188;DHT22;14708;50.872;5.306;2023-07-13T04:35:18;26.20;44.90
27188;DHT22;14708;50.872;5.306;2023-07-13T04:37:47;26.20;45.00
27188;DHT22;14708;50.872;5.306;2023-07-13T04:40:18;26.20;44.90
27188;DHT22;14708;50.872;5.306;2023-07-13T04:42:45;26.20;45.00
27188;DHT22;14708;50.872;5.306;2023-07-13T04:45:11;26.20;44.90
27188;DHT22;14708;50.872;5.306;2023-07-13T04:47:37;26.20;45.00
27188;DHT22;14708;50.872;5.306;2023-07-13T04:50:03;26.20;45.20
27188;DHT22;14708;50.872;5.306;2023-07-13T04:52:30;26.20;45.00
27188;DHT22;14708;50.872;5.306;2023-07-13T04:54:55;26.20;45.10
27188;DHT22;14708;50.872;5.306;2023-07-13T04:57:21;26.20;44.90
27188;DHT22;14708;50.872;5.306;2023-07-13T04:59:46;26.20;45.20
27188;DHT22;14708;50.872;5.306;2023-07-13T05:02:12;26.20;45.30
27188;DHT22;14708;50.872;5.306;2023-07-13T05:04:38;26.20;45.20
27188;DHT22;14708;50.872;5.306;2023-07-13T05:07:04;26.10;45.10
27188;DHT22;14708;50.872;5.306;2023-07-13T05:09:30;26.20;45.30
27188;DHT22;14708;50.872;5.306;2023-07-13T05:11:56;26.20;45.30
27188;DHT22;14708;50.872;5.306;2023-07-13T05:14:21;26.10;45.20
27188;DHT22;14708;50.872;5.306;2023-07-13T05:16:47;26.10;45.30
27188;DHT22;14708;50.872;5.306;2023-07-13T05:19:12;26.10;45.30
27188;DHT22;14708;50.872;5.306;2023-07-13T05:21:38;26.10;45.20
27188;DHT22;14708;50.872;5.306;2023-07-13T05:24:04;26.10;45.10
27188;DHT22;14708;50.872;5.306;2023-07-13T05:26:29;26.10;45.20
27188;DHT22;14708;50.872;5.306;2023-07-13T05:28:55;26.10;45.20
27188;DHT22;14708;50.872;5.306;2023-07-13T05:31:21;26.10;45.40
27188;DHT22;14708;50.872;5.306;2023-07-13T05:33:46;26.10;45.20
27188;DHT22;14708;50.872;5.306;2023-07-13T05:36:12;26.10;45.30
27188;DHT22;14708;50.872;5.306;2023-07-13T05:38:37;26.10;45.30
27188;DHT22;14708;50.872;5.306;2023-07-13T05:41:03;26.10;45.20
27188;DHT22;14708;50.872;5.306;2023-07-13T05:43:29;26.10;45.30
27188;DHT22;14708;50.872;5.306;2023-07-13T05:45:56;26.10;45.30
27188;DHT22;14708;50.872;5.306;2023-07-13T05:48:22;26.10;45.50
27188;DHT22;14708;50.872;5.306;2023-07-13T05:50:47;26.10;45.60
27188;DHT22;14708;50.872;5.306;2023-07-13T05:53:13;26.10;45.40
27188;DHT22;14708;50.872;5.306;2023-07-13T05:55:43;26.10;45.60
27188;DHT22;14708;50.872;5.306;2023-07-13T05:58:09;26.10;45.50
27188;DHT22;14708;50.872;5.306;2023-07-13T06:00:35;26.10;45.60
27188;DHT22;14708;50.872;5.306;2023-07-13T06:03:00;26.10;45.50
27188;DHT22;14708;50.872;5.306;2023-07-13T06:05:26;26.10;45.60
27188;DHT22;14708;50.872;5.306;2023-07-13T06:07:54;26.10;45.70
27188;DHT22;14708;50.872;5.306;2023-07-13T06:10:20;26.10;45.30
27188;DHT22;14708;50.872;5.306;2023-07-13T06:12:46;26.10;45.50
27188;DHT22;14708;50.872;5.306;2023-07-13T06:15:12;26.10;45.40
27188;DHT22;14708;50.872;5.306;2023-07-13T06:17:37;26.10;45.40
27188;DHT22;14708;50.872;5.306;2023-07-13T06:20:03;26.10;45.40
27188;DHT22;14708;50.872;5.306;2023-07-13T06:22:29;26.10;45.40
27188;DHT22;14708;50.872;5.306;2023-07-13T06:24:55;26.10;45.50
27188;DHT22;14708;50.872;5.306;2023-07-13T06:27:21;26.10;45.40
27188;DHT22;14708;50.872;5.306;2023-07-13T06:29:47;26.10;45.50
27188;DHT22;14708;50.872;5.306;2023-07-13T06:32:13;26.10;45.60
27188;DHT22;14708;50.872;5.306;2023-07-13T06:34:38;26.10;45.40
27188;DHT22;14708;50.872;5.306;2023-07-13T06:37:04;26.10;45.50
27188;DHT22;14708;50.872;5.306;2023-07-13T06:39:30;26.10;45.40
27188;DHT22;14708;50.872;5.306;2023-07-13T06:41:55;26.10;45.40
27188;DHT22;14708;50.872;5.306;2023-07-13T06:44:21;26.10;45.80
27188;DHT22;14708;50.872;5.306;2023-07-13T06:46:47;25.90;46.30
27188;DHT22;14708;50.872;5.306;2023-07-13T06:49:12;25.80;46.70
27188;DHT22;14708;50.872;5.306;2023-07-13T06:51:38;25.80;46.90
27188;DHT22;14708;50.872;5.306;2023-07-13T06:54:04;25.90;46.50
27188;DHT22;14708;50.872;5.306;2023-07-13T06:56:29;25.90;46.50
27188;DHT22;14708;50.872;5.306;2023-07-13T06:58:55;25.80;46.50
27188;DHT22;14708;50.872;5.306;2023-07-13T07:01:20;25.80;46.30
27188;DHT22;14708;50.872;5.306;2023-07-13T07:03:46;25.80;46.60
27188;DHT22;14708;50.872;5.306;2023-07-13T07:06:20;25.80;46.60
27188;DHT22;14708;50.872;5.306;2023-07-13T07:08:49;25.70;46.40
27188;DHT22;14708;50.872;5.306;2023-07-13T07:11:18;25.70;46.60
27188;DHT22;14708;50.872;5.306;2023-07-13T07:13:44;25.80;46.70
27188;DHT22;14708;50.872;5.306;2023-07-13T07:16:10;25.70;46.80
27188;DHT22;14708;50.872;5.306;2023-07-13T07:18:36;25.70;47.00
27188;DHT22;14708;50.872;5.306;2023-07-13T07:21:02;25.80;46.90
27188;DHT22;14708;50.872;5.306;2023-07-13T07:23:28;25.80;46.60
27188;DHT22;14708;50.872;5.306;2023-07-13T07:25:53;25.70;46.90
27188;DHT22;14708;50.872;5.306;2023-07-13T07:28:19;25.80;47.10
27188;DHT22;14708;50.872;5.306;2023-07-13T07:30:46;25.70;47.20
27188;DHT22;14708;50.872;5.306;2023-07-13T07:33:12;25.80;47.20
27188;DHT22;14708;50.872;5.306;2023-07-13T07:35:38;25.90;47.10
27188;DHT22;14708;50.872;5.306;2023-07-13T07:38:04;25.80;47.00
27188;DHT22;14708;50.872;5.306;2023-07-13T07:40:30;25.80;46.70
27188;DHT22;14708;50.872;5.306;2023-07-13T07:42:56;25.70;47.10
27188;DHT22;14708;50.872;5.306;2023-07-13T07:45:22;25.70;46.80
27188;DHT22;14708;50.872;5.306;2023-07-13T07:47:47;25.80;46.90
27188;DHT22;14708;50.872;5.306;2023-07-13T07:50:13;25.70;47.00
27188;DHT22;14708;50.872;5.306;2023-07-13T07:52:39;25.80;46.90
27188;DHT22;14708;50.872;5.306;2023-07-13T07:55:06;25.90;46.70
27188;DHT22;14708;50.872;5.306;2023-07-13T07:57:32;25.80;46.70
27188;DHT22;14708;50.872;5.306;2023-07-13T07:59:58;25.80;46.90
27188;DHT22;14708;50.872;5.306;2023-07-13T08:02:25;25.70;47.20
27188;DHT22;14708;50.872;5.306;2023-07-13T08:04:51;25.70;47.40
27188;DHT22;14708;50.872;5.306;2023-07-13T08:07:17;25.70;47.30
27188;DHT22;14708;50.872;5.306;2023-07-13T08:09:42;25.90;47.40
27188;DHT22;14708;50.872;5.306;2023-07-13T08:12:08;25.90;47.20
27188;DHT22;14708;50.872;5.306;2023-07-13T08:14:34;25.80;47.20
27188;DHT22;14708;50.872;5.306;2023-07-13T08:16:59;25.80;47.30
27188;DHT22;14708;50.872;5.306;2023-07-13T08:19:25;25.90;47.50
27188;DHT22;14708;50.872;5.306;2023-07-13T08:21:51;25.90;47.50
27188;DHT22;14708;50.872;5.306;2023-07-13T08:24:16;25.90;47.20
27188;DHT22;14708;50.872;5.306;2023-07-13T08:26:44;25.90;47.10
27188;DHT22;14708;50.872;5.306;2023-07-13T08:29:10;25.90;47.50
27188;DHT22;14708;50.872;5.306;2023-07-13T08:31:36;25.90;47.10
27188;DHT22;14708;50.872;5.306;2023-07-13T08:34:01;25.90;47.20
27188;DHT22;14708;50.872;5.306;2023-07-13T08:36:28;25.90;47.10
27188;DHT22;14708;50.872;5.306;2023-07-13T08:38:54;25.80;47.50
27188;DHT22;14708;50.872;5.306;2023-07-13T08:41:20;25.80;47.90
27188;DHT22;14708;50.872;5.306;2023-07-13T08:43:49;25.80;47.70
27188;DHT22;14708;50.872;5.306;2023-07-13T08:46:21;25.90;47.30
27188;DHT22;14708;50.872;5.306;2023-07-13T08:48:58;25.90;47.10
27188;DHT22;14708;50.872;5.306;2023-07-13T08:51:39;25.90;47.30
27188;DHT22;14708;50.872;5.306;2023-07-13T08:54:20;25.90;47.50
27188;DHT22;14708;50.872;5.306;2023-07-13T08:56:46;25.90;47.20
27188;DHT22;14708;50.872;5.306;2023-07-13T08:59:16;25.90;47.10
27188;DHT22;14708;50.872;5.306;2023-07-13T09:04:34;25.90;47.20
27188;DHT22;14708;50.872;5.306;2023-07-13T09:07:14;25.90;47.10
27188;DHT22;14708;50.872;5.306;2023-07-13T09:15:27;26.00;47.10
27188;DHT22;14708;50.872;5.306;2023-07-13T09:17:56;26.10;46.90
27188;DHT22;14708;50.872;5.306;2023-07-13T09:20:45;26.30;46.80
27188;DHT22;14708;50.872;5.306;2023-07-13T09:23:15;26.30;46.60
27188;DHT22;14708;50.872;5.306;2023-07-13T09:25:45;26.40;46.60
27188;DHT22;14708;50.872;5.306;2023-07-13T09:30:54;26.30;46.60
27188;DHT22;14708;50.872;5.306;2023-07-13T09:33:21;26.60;46.60
27188;DHT22;14708;50.872;5.306;2023-07-13T09:35:48;26.70;46.30
27188;DHT22;14708;50.872;5.306;2023-07-13T09:38:18;26.60;46.40
27188;DHT22;14708;50.872;5.306;2023-07-13T09:43:29;26.60;46.40
27188;DHT22;14708;50.872;5.306;2023-07-13T09:45:55;26.60;46.60
27188;DHT22;14708;50.872;5.306;2023-07-13T09:48:21;26.60;46.70
27188;DHT22;14708;50.872;5.306;2023-07-13T09:50:47;26.60;47.00
27188;DHT22;14708;50.872;5.306;2023-07-13T09:53:18;26.60;47.00
27188;DHT22;14708;50.872;5.306;2023-07-13T09:55:46;26.70;46.90
27188;DHT22;14708;50.872;5.306;2023-07-13T09:58:15;26.70;47.00
27188;DHT22;14708;50.872;5.306;2023-07-13T10:00:44;26.70;47.40
27188;DHT22;14708;50.872;5.306;2023-07-13T10:03:20;26.70;47.20
27188;DHT22;14708;50.872;5.306;2023-07-13T10:05:47;26.80;47.10
27188;DHT22;14708;50.872;5.306;2023-07-13T10:08:27;26.80;47.30
27188;DHT22;14708;50.872;5.306;2023-07-13T10:11:01;26.80;47.20
27188;DHT22;14708;50.872;5.306;2023-07-13T10:13:42;26.70;47.30
27188;DHT22;14708;50.872;5.306;2023-07-13T10:16:08;26.70;47.30
27188;DHT22;14708;50.872;5.306;2023-07-13T10:18:58;26.70;47.30
27188;DHT22;14708;50.872;5.306;2023-07-13T10:21:35;26.70;47.60
27188;DHT22;14708;50.872;5.306;2023-07-13T10:24:22;26.70;47.50
27188;DHT22;14708;50.872;5.306;2023-07-13T10:29:53;26.80;47.60
27188;DHT22;14708;50.872;5.306;2023-07-13T10:32:22;26.80;47.60
27188;DHT22;14708;50.872;5.306;2023-07-13T10:34:50;26.80;47.40
27188;DHT22;14708;50.872;5.306;2023-07-13T10:37:26;26.90;47.60
27188;DHT22;14708;50.872;5.306;2023-07-13T10:39:55;26.90;47.60
27188;DHT22;14708;50.872;5.306;2023-07-13T10:42:29;26.90;47.70
27188;DHT22;14708;50.872;5.306;2023-07-13T10:44:56;26.80;47.80
27188;DHT22;14708;50.872;5.306;2023-07-13T10:47:22;26.90;47.60
27188;DHT22;14708;50.872;5.306;2023-07-13T10:49:52;26.90;47.50
27188;DHT22;14708;50.872;5.306;2023-07-13T10:52:42;26.80;47.60
27188;DHT22;14708;50.872;5.306;2023-07-13T10:58:14;26.90;47.40
27188;DHT22;14708;50.872;5.306;2023-07-13T11:03:34;26.70;46.20
27188;DHT22;14708;50.872;5.306;2023-07-13T11:06:11;26.60;45.80
27188;DHT22;14708;50.872;5.306;2023-07-13T11:08:51;26.50;45.80
27188;DHT22;14708;50.872;5.306;2023-07-13T11:14:02;26.50;45.70
27188;DHT22;14708;50.872;5.306;2023-07-13T11:21:33;26.50;45.70
27188;DHT22;14708;50.872;5.306;2023-07-13T11:24:18;26.50;45.60
27188;DHT22;14708;50.872;5.306;2023-07-13T11:31:42;26.50;45.50
27188;DHT22;14708;50.872;5.306;2023-07-13T11:34:15;26.50;45.00
27188;DHT22;14708;50.872;5.306;2023-07-13T11:36:45;26.50;45.00
27188;DHT22;14708;50.872;5.306;2023-07-13T11:41:53;26.60;45.30
27188;DHT22;14708;50.872;5.306;2023-07-13T11:44:24;26.60;44.80
27188;DHT22;14708;50.872;5.306;2023-07-13T11:46:55;26.60;44.80
27188;DHT22;14708;50.872;5.306;2023-07-13T11:49:23;26.60;44.20
27188;DHT22;14708;50.872;5.306;2023-07-13T11:51:50;26.60;43.70
27188;DHT22;14708;50.872;5.306;2023-07-13T11:54:46;26.60;43.80
27188;DHT22;14708;50.872;5.306;2023-07-13T11:57:30;26.50;43.50
27188;DHT22;14708;50.872;5.306;2023-07-13T12:00:00;26.50;43.60
27188;DHT22;14708;50.872;5.306;2023-07-13T12:02:33;26.60;43.30
27188;DHT22;14708;50.872;5.306;2023-07-13T12:05:00;26.60;43.30
27188;DHT22;14708;50.872;5.306;2023-07-13T12:07:28;26.50;43.00
27188;DHT22;14708;50.872;5.306;2023-07-13T12:10:03;26.50;43.00
27188;DHT22;14708;50.872;5.306;2023-07-13T12:12:36;26.50;43.10
27188;DHT22;14708;50.872;5.306;2023-07-13T12:15:07;26.50;43.00
27188;DHT22;14708;50.872;5.306;2023-07-13T12:17:34;26.50;42.80
27188;DHT22;14708;50.872;5.306;2023-07-13T12:20:03;26.60;42.30
27188;DHT22;14708;50.872;5.306;2023-07-13T12:22:36;26.60;41.90
27188;DHT22;14708;50.872;5.306;2023-07-13T12:25:01;26.60;42.00
27188;DHT22;14708;50.872;5.306;2023-07-13T12:27:27;26.60;41.90
27188;DHT22;14708;50.872;5.306;2023-07-13T12:30:05;26.60;41.60
27188;DHT22;14708;50.872;5.306;2023-07-13T12:32:41;26.60;41.60
27188;DHT22;14708;50.872;5.306;2023-07-13T12:35:17;26.60;41.60
27188;DHT22;14708;50.872;5.306;2023-07-13T12:37:46;26.60;41.20
27188;DHT22;14708;50.872;5.306;2023-07-13T12:40:16;26.60;41.90
27188;DHT22;14708;50.872;5.306;2023-07-13T12:42:46;26.60;41.40
27188;DHT22;14708;50.872;5.306;2023-07-13T12:47:49;26.70;41.10
27188;DHT22;14708;50.872;5.306;2023-07-13T12:50:18;26.70;41.00
27188;DHT22;14708;50.872;5.306;2023-07-13T12:52:49;26.70;41.30
27188;DHT22;14708;50.872;5.306;2023-07-13T12:55:18;26.80;41.30
27188;DHT22;14708;50.872;5.306;2023-07-13T12:57:54;26.70;40.90
27188;DHT22;14708;50.872;5.306;2023-07-13T13:02:54;26.70;41.20
27188;DHT22;14708;50.872;5.306;2023-07-13T13:05:21;26.70;40.50
27188;DHT22;14708;50.872;5.306;2023-07-13T13:07:49;26.70;41.20
27188;DHT22;14708;50.872;5.306;2023-07-13T13:10:15;26.70;41.00
27188;DHT22;14708;50.872;5.306;2023-07-13T13:12:41;26.70;41.10
27188;DHT22;14708;50.872;5.306;2023-07-13T13:15:10;26.70;41.40
27188;DHT22;14708;50.872;5.306;2023-07-13T13:17:40;26.70;41.50
27188;DHT22;14708;50.872;5.306;2023-07-13T13:20:17;26.60;41.60
27188;DHT22;14708;50.872;5.306;2023-07-13T13:22:43;26.60;41.60
27188;DHT22;14708;50.872;5.306;2023-07-13T13:25:13;26.60;41.70
27188;DHT22;14708;50.872;5.306;2023-07-13T13:27:40;26.50;41.90
27188;DHT22;14708;50.872;5.306;2023-07-13T13:30:16;26.50;41.70
27188;DHT22;14708;50.872;5.306;2023-07-13T13:32:44;26.50;42.10
27188;DHT22;14708;50.872;5.306;2023-07-13T13:35:18;26.50;41.90
27188;DHT22;14708;50.872;5.306;2023-07-13T13:37:44;26.50;42.30
27188;DHT22;14708;50.872;5.306;2023-07-13T13:40:20;26.50;42.10
27188;DHT22;14708;50.872;5.306;2023-07-13T13:42:46;26.50;42.40
27188;DHT22;14708;50.872;5.306;2023-07-13T13:45:13;26.40;42.60
27188;DHT22;14708;50.872;5.306;2023-07-13T13:47:39;26.50;42.60
27188;DHT22;14708;50.872;5.306;2023-07-13T13:50:16;26.40;43.10
27188;DHT22;14708;50.872;5.306;2023-07-13T13:52:43;26.40;43.00
27188;DHT22;14708;50.872;5.306;2023-07-13T13:55:13;26.40;43.20
27188;DHT22;14708;50.872;5.306;2023-07-13T13:57:39;26.40;43.20
27188;DHT22;14708;50.872;5.306;2023-07-13T14:00:05;26.40;43.60
27188;DHT22;14708;50.872;5.306;2023-07-13T14:02:31;26.30;43.90
27188;DHT22;14708;50.872;5.306;2023-07-13T14:05:02;26.30;44.40
27188;DHT22;14708;50.872;5.306;2023-07-13T14:07:28;26.30;44.50
27188;DHT22;14708;50.872;5.306;2023-07-13T14:09:59;26.30;44.60
27188;DHT22;14708;50.872;5.306;2023-07-13T14:12:27;26.30;45.00
27188;DHT22;14708;50.872;5.306;2023-07-13T14:14:55;26.30;45.20
27188;DHT22;14708;50.872;5.306;2023-07-13T14:17:24;26.30;44.90
27188;DHT22;14708;50.872;5.306;2023-07-13T14:19:52;26.30;44.90
27188;DHT22;14708;50.872;5.306;2023-07-13T14:22:25;26.40;44.60
27188;DHT22;14708;50.872;5.306;2023-07-13T14:24:52;26.30;44.60
27188;DHT22;14708;50.872;5.306;2023-07-13T14:27:19;26.40;44.90
27188;DHT22;14708;50.872;5.306;2023-07-13T14:29:44;26.40;45.10
27188;DHT22;14708;50.872;5.306;2023-07-13T14:32:11;26.40;44.90
27188;DHT22;14708;50.872;5.306;2023-07-13T14:34:37;26.40;45.10
27188;DHT22;14708;50.872;5.306;2023-07-13T14:37:03;26.40;45.60
27188;DHT22;14708;50.872;5.306;2023-07-13T14:39:30;26.50;45.40
27188;DHT22;14708;50.872;5.306;2023-07-13T14:41:57;26.40;45.40
27188;DHT22;14708;50.872;5.306;2023-07-13T14:44:30;26.50;45.30
27188;DHT22;14708;50.872;5.306;2023-07-13T14:46:57;26.50;45.20
27188;DHT22;14708;50.872;5.306;2023-07-13T14:49:30;26.50;45.50
27188;DHT22;14708;50.872;5.306;2023-07-13T14:51:59;26.50;45.60
27188;DHT22;14708;50.872;5.306;2023-07-13T14:54:26;26.60;45.30
27188;DHT22;14708;50.872;5.306;2023-07-13T14:56:51;26.50;45.20
27188;DHT22;14708;50.872;5.306;2023-07-13T14:59:17;26.60;45.00
27188;DHT22;14708;50.872;5.306;2023-07-13T15:01:45;26.60;45.10
27188;DHT22;14708;50.872;5.306;2023-07-13T15:04:11;26.50;45.00
27188;DHT22;14708;50.872;5.306;2023-07-13T15:06:57;26.50;45.20
27188;DHT22;14708;50.872;5.306;2023-07-13T15:09:27;26.40;45.30
27188;DHT22;14708;50.872;5.306;2023-07-13T15:11:58;26.40;45.40
27188;DHT22;14708;50.872;5.306;2023-07-13T15:14:24;26.40;45.40
27188;DHT22;14708;50.872;5.306;2023-07-13T15:16:52;26.40;45.50
27188;DHT22;14708;50.872;5.306;2023-07-13T15:19:19;26.40;45.50
27188;DHT22;14708;50.872;5.306;2023-07-13T15:21:47;26.40;45.60
27188;DHT22;14708;50.872;5.306;2023-07-13T15:24:13;26.30;45.50
27188;DHT22;14708;50.872;5.306;2023-07-13T15:26:39;26.30;45.50
27188;DHT22;14708;50.872;5.306;2023-07-13T15:29:05;26.30;45.40
27188;DHT22;14708;50.872;5.306;2023-07-13T15:31:32;26.40;45.30
27188;DHT22;14708;50.872;5.306;2023-07-13T15:33:59;26.40;45.50
27188;DHT22;14708;50.872;5.306;2023-07-13T15:36:26;26.50;45.30
27188;DHT22;14708;50.872;5.306;2023-07-13T15:38:54;26.60;45.50
27188;DHT22;14708;50.872;5.306;2023-07-13T15:41:22;26.60;45.20
27188;DHT22;14708;50.872;5.306;2023-07-13T15:43:50;26.60;45.20
27188;DHT22;14708;50.872;5.306;2023-07-13T15:46:18;26.70;45.20
27188;DHT22;14708;50.872;5.306;2023-07-13T15:48:45;26.70;44.90
27188;DHT22;14708;50.872;5.306;2023-07-13T15:51:19;26.70;45.10
27188;DHT22;14708;50.872;5.306;2023-07-13T15:53:46;26.80;45.10
27188;DHT22;14708;50.872;5.306;2023-07-13T15:56:21;26.80;44.90
27188;DHT22;14708;50.872;5.306;2023-07-13T15:58:48;26.80;45.10
27188;DHT22;14708;50.872;5.306;2023-07-13T16:01:14;26.80;44.90
27188;DHT22;14708;50.872;5.306;2023-07-13T16:03:40;26.80;45.00
27188;DHT22;14708;50.872;5.306;2023-07-13T16:06:22;26.80;45.00
27188;DHT22;14708;50.872;5.306;2023-07-13T16:08:49;26.70;44.80
27188;DHT22;14708;50.872;5.306;2023-07-13T16:11:22;26.70;44.50
27188;DHT22;14708;50.872;5.306;2023-07-13T16:13:49;26.60;44.40
27188;DHT22;14708;50.872;5.306;2023-07-13T16:16:26;26.70;43.80
27188;DHT22;14708;50.872;5.306;2023-07-13T16:18:56;26.70;43.20
27188;DHT22;14708;50.872;5.306;2023-07-13T16:21:26;26.70;43.20